createdAt,value
2019-02-06T00:01:33.068Z,11.63
2019-02-06T00:04:01.874Z,11.27
2019-02-06T00:06:30.886Z,12.37
2019-02-06T00:08:59.675Z,11.53
2019-02-06T00:11:28.494Z,12.87
2019-02-06T00:13:57.330Z,12.23
2019-02-06T00:16:26.100Z,11.90
2019-02-06T00:18:54.903Z,12.63
2019-02-06T00:21:23.692Z,12.33
2019-02-06T00:23:52.849Z,11.47
2019-02-06T00:26:21.705Z,12.63
2019-02-06T00:28:50.474Z,12.13
2019-02-06T00:31:19.252Z,11.67
2019-02-06T00:33:48.051Z,12.43
2019-02-06T00:36:16.848Z,12.37
2019-02-06T00:38:45.662Z,11.60
2019-02-06T00:41:14.494Z,11.93
2019-02-06T00:43:43.282Z,11.57
2019-02-06T00:46:12.124Z,12.47
2019-02-06T00:48:40.830Z,11.77
2019-02-06T00:51:09.740Z,11.10
2019-02-06T00:53:38.524Z,12.47
2019-02-06T00:56:07.605Z,11.40
2019-02-06T00:58:37.465Z,12.43
2019-02-06T01:01:06.332Z,11.87
2019-02-06T01:03:35.070Z,12.70
2019-02-06T01:06:04.079Z,12.43
2019-02-06T01:08:32.878Z,11.53
2019-02-06T01:11:02.058Z,10.87
2019-02-06T01:13:30.813Z,11.63
2019-02-06T01:15:59.616Z,13.47
2019-02-06T01:18:28.428Z,11.17
2019-02-06T01:20:57.149Z,12.60
2019-02-06T01:23:25.967Z,11.90
2019-02-06T01:25:54.685Z,11.20
2019-02-06T01:28:23.771Z,12.40
2019-02-06T01:31:11.685Z,11.77
2019-02-06T01:33:40.496Z,11.43
2019-02-06T01:36:09.308Z,11.63
2019-02-06T01:38:38.098Z,11.40
2019-02-06T01:41:06.811Z,11.37
2019-02-06T01:43:35.633Z,13.03
2019-02-06T01:46:04.455Z,13.33
2019-02-06T01:48:33.244Z,11.33
2019-02-06T01:51:02.042Z,12.23
2019-02-06T01:53:30.951Z,12.23
2019-02-06T01:56:00.027Z,11.87
2019-02-06T01:58:28.837Z,12.80
2019-02-06T02:00:57.705Z,11.67
2019-02-06T02:03:26.510Z,12.07
2019-02-06T02:06:02.268Z,12.27
2019-02-06T02:08:25.743Z,11.67
2019-02-06T02:10:54.639Z,11.23
2019-02-06T02:13:23.491Z,11.97
2019-02-06T02:15:52.210Z,11.67
2019-02-06T02:18:21.033Z,11.50
2019-02-06T02:20:49.845Z,11.27
2019-02-06T02:23:18.656Z,11.50
2019-02-06T02:25:47.457Z,11.63
2019-02-06T02:28:16.683Z,11.27
2019-02-06T02:30:48.654Z,12.43
2019-02-06T02:33:17.493Z,11.70
2019-02-06T02:35:46.268Z,10.87
2019-02-06T02:38:15.065Z,11.43
2019-02-06T02:40:43.861Z,11.67
2019-02-06T02:43:12.871Z,11.77
2019-02-06T02:45:41.657Z,13.40
2019-02-06T02:48:10.458Z,12.30
2019-02-06T02:50:41.268Z,13.93
2019-02-06T02:53:09.997Z,12.97
2019-02-06T02:55:38.794Z,13.00
2019-02-06T02:58:08.289Z,14.43
2019-02-06T03:01:05.316Z,14.07
2019-02-06T03:03:44.387Z,14.53
2019-02-06T03:06:13.403Z,14.23
2019-02-06T03:08:42.102Z,14.67
2019-02-06T03:11:10.874Z,15.20
2019-02-06T03:13:39.658Z,15.47
2019-02-06T03:16:08.446Z,13.63
2019-02-06T03:18:37.261Z,15.67
2019-02-06T03:21:06.474Z,16.60
2019-02-06T03:23:35.314Z,16.50
2019-02-06T03:26:04.221Z,18.00
2019-02-06T03:28:33.015Z,17.10
2019-02-06T03:31:01.818Z,18.67
2019-02-06T03:33:30.669Z,18.30
2019-02-06T03:35:59.454Z,16.93
2019-02-06T03:38:28.239Z,18.07
2019-02-06T03:40:57.050Z,18.63
2019-02-06T03:43:25.838Z,15.97
2019-02-06T03:45:54.647Z,16.20
2019-02-06T03:48:23.444Z,15.47
2019-02-06T03:50:52.263Z,13.97
2019-02-06T03:53:21.282Z,15.77
2019-02-06T03:55:50.078Z,15.80
2019-02-06T03:58:18.900Z,15.10
2019-02-06T04:00:47.699Z,14.63
2019-02-06T04:03:16.530Z,12.97
2019-02-06T04:05:45.470Z,14.20
2019-02-06T04:08:14.232Z,15.80
2019-02-06T04:10:43.034Z,14.60
2019-02-06T04:13:11.845Z,14.33
2019-02-06T04:15:40.644Z,13.73
2019-02-06T04:18:09.446Z,16.10
2019-02-06T04:20:38.247Z,15.50
2019-02-06T04:23:07.063Z,15.13
2019-02-06T04:25:36.173Z,15.40
2019-02-06T04:28:05.115Z,15.13
2019-02-06T04:30:33.887Z,15.27
2019-02-06T04:33:02.668Z,15.77
2019-02-06T04:35:31.469Z,17.20
2019-02-06T04:38:00.271Z,15.67
2019-02-06T04:40:29.357Z,15.70
2019-02-06T04:42:58.076Z,16.73
2019-02-06T04:45:26.814Z,16.13
2019-02-06T04:47:55.592Z,16.00
2019-02-06T04:50:24.466Z,16.53
2019-02-06T04:52:53.259Z,15.70
2019-02-06T04:55:22.083Z,15.87
2019-02-06T04:57:51.050Z,17.10
2019-02-06T05:00:20.995Z,17.07
2019-02-06T05:02:50.015Z,15.57
2019-02-06T05:05:18.864Z,17.23
2019-02-06T05:07:47.702Z,17.00
2019-02-06T05:10:16.601Z,16.17
2019-02-06T05:12:45.686Z,16.63
2019-02-06T05:15:14.680Z,16.40
2019-02-06T05:17:43.532Z,16.57
2019-02-06T05:20:43.382Z,18.20
2019-02-06T05:23:12.175Z,15.87
2019-02-06T05:25:40.972Z,13.97
2019-02-06T05:28:09.795Z,14.03
2019-02-06T05:30:38.496Z,16.70
2019-02-06T05:33:07.318Z,16.33
2019-02-06T05:35:36.103Z,16.07
2019-02-06T05:38:05.305Z,15.23
2019-02-06T05:40:34.104Z,13.50
2019-02-06T05:43:02.911Z,17.73
2019-02-06T05:45:31.622Z,14.33
2019-02-06T05:48:00.365Z,17.23
2019-02-06T05:50:29.152Z,15.30
2019-02-06T05:52:57.945Z,15.00
2019-02-06T05:55:27.160Z,14.33
2019-02-06T05:57:55.999Z,15.83
2019-02-06T06:00:29.249Z,16.03
2019-02-06T06:02:58.049Z,16.63
2019-02-06T06:05:29.562Z,15.83
2019-02-06T06:07:58.378Z,15.13
2019-02-06T06:10:27.451Z,15.07
2019-02-06T06:12:56.274Z,14.40
2019-02-06T06:15:25.019Z,15.17
2019-02-06T06:17:53.810Z,13.73
2019-02-06T06:20:25.651Z,15.03
2019-02-06T06:22:54.427Z,15.47
2019-02-06T06:25:23.209Z,16.07
2019-02-06T06:27:52.034Z,15.27
2019-02-06T06:30:20.873Z,14.93
2019-02-06T06:32:50.155Z,15.57
2019-02-06T06:35:18.953Z,14.83
2019-02-06T06:37:57.679Z,15.80
2019-02-06T06:40:19.297Z,14.63
2019-02-06T06:42:48.436Z,11.57
2019-02-06T06:45:19.000Z,14.90
2019-02-06T06:47:47.889Z,16.37
2019-02-06T06:50:18.179Z,14.50
2019-02-06T06:52:46.965Z,16.00
2019-02-06T06:55:15.794Z,14.57
2019-02-06T06:57:45.017Z,13.50
2019-02-06T07:00:15.338Z,14.03
2019-02-06T07:02:44.137Z,12.80
2019-02-06T07:05:13.117Z,12.23
2019-02-06T07:07:41.854Z,14.50
2019-02-06T07:10:12.276Z,7.67
2019-02-06T07:12:41.364Z,12.03
2019-02-06T07:15:12.207Z,14.13
2019-02-06T07:17:40.977Z,14.13
2019-02-06T07:20:10.840Z,13.63
2019-02-06T07:22:39.670Z,12.77
2019-02-06T07:25:08.626Z,14.53
2019-02-06T07:27:37.553Z,12.60
2019-02-06T07:30:08.877Z,12.77
2019-02-06T07:32:37.742Z,14.37
2019-02-06T07:35:06.646Z,12.13
2019-02-06T07:37:35.446Z,12.23
2019-02-06T07:40:07.356Z,12.13
2019-02-06T07:42:36.543Z,12.97
2019-02-06T07:45:06.202Z,11.73
2019-02-06T07:47:34.938Z,10.63
2019-02-06T07:50:04.483Z,13.77
2019-02-06T07:52:33.288Z,11.93
2019-02-06T07:55:02.039Z,12.60
2019-02-06T07:57:31.191Z,12.47
2019-02-06T07:59:59.976Z,13.03
2019-02-06T08:02:28.799Z,11.87
2019-02-06T08:04:57.609Z,12.03
2019-02-06T08:07:26.428Z,10.00
2019-02-06T08:09:55.258Z,11.70
2019-02-06T08:12:24.117Z,12.00
2019-02-06T08:14:53.511Z,11.70
2019-02-06T08:17:22.329Z,11.30
2019-02-06T08:19:51.307Z,10.90
2019-02-06T08:22:20.053Z,11.27
2019-02-06T08:24:48.863Z,9.30
2019-02-06T08:27:18.197Z,11.80
2019-02-06T08:29:47.437Z,12.13
2019-02-06T08:32:16.240Z,11.13
2019-02-06T08:34:45.061Z,11.13
2019-02-06T08:37:13.843Z,10.73
2019-02-06T08:39:42.654Z,9.87
2019-02-06T08:42:11.486Z,10.63
2019-02-06T08:44:40.283Z,9.63
2019-02-06T08:47:09.004Z,11.13
2019-02-06T08:49:42.870Z,10.03
2019-02-06T08:52:11.662Z,10.07
2019-02-06T08:54:40.633Z,9.33
2019-02-06T08:57:09.440Z,9.37
2019-02-06T08:59:38.333Z,11.10
2019-02-06T09:02:07.160Z,8.47
2019-02-06T09:04:36.079Z,9.03
2019-02-06T09:07:05.015Z,9.23
2019-02-06T09:09:33.838Z,9.20
2019-02-06T09:12:02.652Z,9.90
2019-02-06T09:14:31.489Z,9.83
2019-02-06T09:17:00.597Z,11.20
2019-02-06T09:19:29.395Z,9.83
2019-02-06T09:21:58.231Z,11.07
2019-02-06T09:24:27.015Z,9.50
2019-02-06T09:26:55.810Z,8.87
2019-02-06T09:29:24.732Z,10.27
2019-02-06T09:31:53.827Z,9.83
2019-02-06T09:34:22.608Z,9.53
2019-02-06T09:36:51.342Z,9.97
2019-02-06T09:39:20.071Z,9.40
2019-02-06T09:41:48.888Z,9.40
2019-02-06T09:44:17.717Z,9.93
2019-02-06T09:46:46.506Z,9.80
2019-02-06T09:49:15.583Z,9.00
2019-02-06T09:51:44.315Z,10.20
2019-02-06T09:54:13.059Z,9.40
2019-02-06T09:56:41.865Z,9.10
2019-02-06T09:59:10.650Z,9.50
2019-02-06T10:01:39.464Z,9.23
2019-02-06T10:04:08.269Z,9.07
2019-02-06T10:06:37.060Z,8.63
2019-02-06T10:09:07.500Z,9.53
2019-02-06T10:11:36.337Z,8.53
2019-02-06T10:14:05.140Z,8.57
2019-02-06T10:16:33.938Z,10.03
2019-02-06T10:19:02.762Z,9.47
2019-02-06T10:21:31.668Z,8.37
2019-02-06T10:24:00.463Z,8.93
2019-02-06T10:26:29.291Z,9.53
2019-02-06T10:28:58.091Z,9.37
2019-02-06T10:31:26.812Z,9.37
2019-02-06T10:33:55.636Z,8.50
2019-02-06T10:36:24.874Z,10.47
2019-02-06T10:38:53.753Z,9.30
2019-02-06T10:41:22.579Z,8.27
2019-02-06T10:43:51.419Z,8.37
2019-02-06T10:46:20.246Z,8.40
2019-02-06T10:48:49.013Z,6.27
2019-02-06T10:51:17.793Z,7.33
2019-02-06T10:53:46.628Z,8.07
2019-02-06T10:56:15.420Z,8.07
2019-02-06T10:58:44.230Z,7.60
2019-02-06T11:01:13.061Z,7.83
2019-02-06T11:03:42.080Z,6.90
2019-02-06T11:06:10.891Z,7.63
2019-02-06T11:08:40.006Z,7.30
2019-02-06T11:11:08.840Z,6.73
2019-02-06T11:13:37.685Z,7.73
2019-02-06T11:16:06.483Z,6.80
2019-02-06T11:18:35.339Z,7.63
2019-02-06T11:21:04.473Z,7.27
2019-02-06T11:23:33.252Z,6.67
2019-02-06T11:26:02.158Z,7.50
2019-02-06T11:28:30.959Z,7.43
2019-02-06T11:30:59.827Z,6.63
2019-02-06T11:33:28.718Z,7.33
2019-02-06T11:35:57.505Z,7.17
2019-02-06T11:38:28.086Z,7.37
2019-02-06T11:40:56.768Z,6.20
2019-02-06T11:43:25.583Z,6.53
2019-02-06T11:45:54.474Z,6.67
2019-02-06T11:48:23.294Z,6.60
2019-02-06T11:50:52.016Z,6.23
2019-02-06T11:53:22.012Z,6.70
2019-02-06T11:55:51.136Z,6.57
2019-02-06T11:58:19.916Z,6.57
2019-02-06T12:00:57.303Z,6.30
2019-02-06T12:03:26.114Z,5.53
2019-02-06T12:05:54.969Z,6.20
2019-02-06T12:08:23.782Z,5.93
2019-02-06T12:10:52.653Z,6.73
2019-02-06T12:13:21.455Z,5.77
2019-02-06T12:15:50.304Z,5.97
2019-02-06T12:18:19.231Z,6.23
2019-02-06T12:20:48.192Z,6.23
2019-02-06T12:23:17.007Z,6.13
2019-02-06T12:25:46.143Z,6.00
2019-02-06T12:28:17.874Z,6.70
2019-02-06T12:30:46.663Z,6.73
2019-02-06T12:33:15.471Z,6.47
2019-02-06T12:35:44.273Z,6.80
2019-02-06T12:38:13.082Z,6.30
2019-02-06T12:40:42.126Z,5.93
2019-02-06T12:43:10.886Z,6.57
2019-02-06T12:45:39.767Z,6.17
2019-02-06T12:48:08.641Z,6.63
2019-02-06T12:50:37.479Z,6.00
2019-02-06T12:53:06.376Z,6.07
2019-02-06T12:55:35.945Z,6.57
2019-02-06T12:58:05.288Z,6.50
2019-02-06T13:00:34.635Z,6.33
2019-02-06T13:03:03.571Z,7.13
2019-02-06T13:05:32.357Z,6.20
2019-02-06T13:08:01.187Z,6.10
2019-02-06T13:10:34.464Z,4.50
2019-02-06T13:13:03.663Z,6.97
2019-02-06T13:15:32.804Z,6.07
2019-02-06T13:18:01.658Z,5.87
2019-02-06T13:20:30.687Z,6.77
2019-02-06T13:23:02.019Z,6.30
2019-02-06T13:25:30.900Z,5.63
2019-02-06T13:28:01.913Z,6.20
2019-02-06T13:30:31.872Z,5.37
2019-02-06T13:33:00.694Z,6.00
2019-02-06T13:35:29.486Z,5.90
2019-02-06T13:37:58.955Z,5.27
2019-02-06T13:40:27.962Z,5.43
2019-02-06T13:42:57.032Z,5.67
2019-02-06T13:45:27.480Z,5.97
2019-02-06T13:47:56.369Z,6.80
2019-02-06T13:50:25.716Z,5.50
2019-02-06T13:52:54.519Z,5.60
2019-02-06T13:55:23.416Z,6.33
2019-02-06T13:57:52.218Z,5.83
2019-02-06T14:00:26.516Z,6.27
2019-02-06T14:03:00.704Z,6.10
2019-02-06T14:05:31.190Z,5.23
2019-02-06T14:08:06.130Z,6.37
2019-02-06T14:10:34.920Z,5.47
2019-02-06T14:13:03.917Z,6.07
2019-02-06T14:15:34.257Z,5.70
2019-02-06T14:18:04.227Z,6.60
2019-02-06T14:20:33.014Z,5.37
2019-02-06T14:23:03.973Z,5.63
2019-02-06T14:25:34.755Z,6.23
2019-02-06T14:28:19.071Z,6.87
2019-02-06T14:31:05.586Z,5.57
2019-02-06T14:33:56.637Z,5.07
2019-02-06T14:36:44.526Z,5.50
2019-02-06T14:39:16.568Z,6.33
2019-02-06T14:42:04.580Z,5.77
2019-02-06T14:44:57.317Z,6.20
2019-02-06T14:47:48.660Z,5.13
2019-02-06T14:50:35.106Z,5.33
2019-02-06T14:53:10.699Z,6.10
2019-02-06T14:55:49.479Z,5.13
2019-02-06T14:58:37.294Z,5.83
2019-02-06T15:01:09.483Z,5.53
2019-02-06T15:03:43.155Z,5.77
2019-02-06T15:06:49.511Z,5.27
2019-02-06T15:09:36.041Z,5.77
2019-02-06T15:12:22.776Z,5.60
2019-02-06T15:15:05.739Z,5.47
2019-02-06T15:17:51.665Z,6.00
2019-02-06T15:20:40.332Z,5.77
2019-02-06T15:23:32.954Z,6.23
2019-02-06T15:26:11.362Z,5.77
2019-02-06T15:29:02.405Z,6.00
2019-02-06T15:31:41.797Z,5.70
2019-02-06T15:34:29.495Z,5.57
2019-02-06T15:37:05.680Z,5.67
2019-02-06T15:39:53.063Z,5.67
2019-02-06T15:42:44.029Z,6.37
2019-02-06T15:45:28.731Z,5.97
2019-02-06T15:48:29.066Z,5.27
2019-02-06T15:51:17.598Z,5.90
2019-02-06T15:54:05.194Z,5.47
2019-02-06T15:56:48.110Z,5.53
2019-02-06T15:59:41.877Z,6.00
2019-02-06T16:02:29.844Z,5.77
2019-02-06T16:05:36.378Z,6.13
2019-02-06T16:08:17.148Z,5.43
2019-02-06T16:11:07.979Z,5.97
2019-02-06T16:14:04.727Z,5.87
2019-02-06T16:16:52.658Z,6.33
2019-02-06T16:19:31.605Z,5.80
2019-02-06T16:22:09.899Z,5.97
2019-02-06T16:24:42.392Z,5.97
2019-02-06T16:27:33.417Z,6.07
2019-02-06T16:30:27.329Z,6.13
2019-02-06T16:33:10.390Z,6.47
2019-02-06T16:35:58.185Z,6.00
2019-02-06T16:38:46.076Z,6.33
2019-02-06T16:41:34.034Z,6.00
2019-02-06T16:44:13.319Z,6.80
2019-02-06T16:47:00.192Z,6.47
2019-02-06T16:49:44.277Z,6.57
2019-02-06T16:52:23.601Z,6.90
2019-02-06T16:55:14.831Z,6.57
2019-02-06T16:58:02.937Z,6.00
2019-02-06T17:00:50.229Z,6.80
2019-02-06T17:03:49.627Z,6.63
2019-02-06T17:06:31.220Z,6.93
2019-02-06T17:09:18.810Z,7.43
2019-02-06T17:12:19.114Z,7.47
2019-02-06T17:15:07.519Z,7.57
2019-02-06T17:17:51.621Z,8.03
2019-02-06T17:20:52.046Z,6.80
2019-02-06T17:23:42.373Z,6.80
2019-02-06T17:26:31.283Z,6.57
2019-02-06T17:29:25.285Z,6.40
2019-02-06T17:32:02.351Z,6.87
2019-02-06T17:34:41.397Z,6.43
2019-02-06T17:37:29.494Z,6.83
2019-02-06T17:40:10.635Z,6.70
2019-02-06T17:43:10.803Z,8.03
2019-02-06T17:46:07.725Z,6.37
2019-02-06T17:48:50.497Z,6.73
2019-02-06T17:51:38.653Z,7.87
2019-02-06T17:54:44.751Z,6.67
2019-02-06T17:57:13.653Z,7.37
2019-02-06T17:59:42.416Z,7.10
2019-02-06T18:02:11.420Z,7.40
2019-02-06T18:04:41.905Z,8.43
2019-02-06T18:07:10.753Z,8.60
2019-02-06T18:09:39.692Z,8.50
2019-02-06T18:12:08.605Z,8.30
2019-02-06T18:14:37.521Z,8.00
2019-02-06T18:17:06.269Z,7.87
2019-02-06T18:19:39.539Z,10.23
2019-02-06T18:22:08.848Z,7.70
2019-02-06T18:24:37.915Z,8.87
2019-02-06T18:27:06.959Z,8.43
2019-02-06T18:29:35.922Z,8.60
2019-02-06T18:32:04.788Z,8.17
2019-02-06T18:34:33.729Z,8.60
2019-02-06T18:37:02.782Z,9.00
2019-02-06T18:39:31.646Z,9.40
2019-02-06T18:42:00.793Z,8.87
2019-02-06T18:44:29.674Z,8.77
2019-02-06T18:46:59.923Z,8.73
2019-02-06T18:49:28.773Z,8.10
2019-02-06T18:51:57.639Z,8.93
2019-02-06T18:54:26.866Z,8.63
2019-02-06T18:56:56.072Z,9.77
2019-02-06T18:59:26.971Z,9.57
2019-02-06T19:01:56.342Z,9.50
2019-02-06T19:04:25.268Z,9.30
2019-02-06T19:06:54.761Z,10.37
2019-02-06T19:09:23.969Z,9.87
2019-02-06T19:11:55.256Z,9.30
2019-02-06T19:14:24.550Z,9.67
2019-02-06T19:16:58.448Z,9.20
2019-02-06T19:19:27.990Z,8.80
2019-02-06T19:21:56.924Z,9.20
2019-02-06T19:24:25.879Z,9.53
2019-02-06T19:26:54.902Z,8.80
2019-02-06T19:29:24.022Z,8.47
2019-02-06T19:31:52.942Z,8.43
2019-02-06T19:34:21.961Z,9.43
2019-02-06T19:36:50.885Z,8.10
2019-02-06T19:39:19.773Z,8.10
2019-02-06T19:41:48.693Z,8.37
2019-02-06T19:44:17.616Z,7.97
2019-02-06T19:46:46.721Z,8.27
2019-02-06T19:49:16.663Z,8.60
2019-02-06T19:51:45.934Z,7.13
2019-02-06T19:54:14.938Z,8.73
2019-02-06T19:56:43.969Z,7.83
2019-02-06T19:59:13.889Z,7.97
2019-02-06T20:01:43.105Z,8.00
2019-02-06T20:04:12.139Z,7.90
2019-02-06T20:06:41.003Z,7.07
2019-02-06T20:09:10.876Z,8.10
2019-02-06T20:11:40.813Z,7.73
2019-02-06T20:14:12.912Z,7.37
2019-02-06T20:16:41.877Z,7.87
2019-02-06T20:19:10.773Z,7.93
2019-02-06T20:21:39.993Z,7.60
2019-02-06T20:24:09.018Z,7.80
2019-02-06T20:26:38.108Z,7.40
2019-02-06T20:29:07.092Z,7.07
2019-02-06T20:31:36.064Z,8.20
2019-02-06T20:34:05.271Z,7.90
2019-02-06T20:36:34.260Z,8.10
2019-02-06T20:39:04.423Z,9.40
2019-02-06T20:41:33.602Z,8.53
2019-02-06T20:44:02.534Z,9.03
2019-02-06T20:46:34.119Z,8.17
2019-02-06T20:49:03.155Z,8.97
2019-02-06T20:51:35.061Z,9.27
2019-02-06T20:54:04.180Z,12.07
2019-02-06T20:56:33.414Z,9.93
2019-02-06T20:59:02.413Z,9.80
2019-02-06T21:01:31.429Z,9.27
2019-02-06T21:04:00.373Z,9.00
2019-02-06T21:06:29.306Z,9.63
2019-02-06T21:08:58.294Z,9.23
2019-02-06T21:11:27.670Z,9.77
2019-02-06T21:13:56.657Z,10.13
2019-02-06T21:16:25.484Z,10.23
2019-02-06T21:18:54.363Z,9.33
2019-02-06T21:21:23.892Z,9.60
2019-02-06T21:23:52.711Z,9.97
2019-02-06T21:26:21.694Z,9.53
2019-02-06T21:28:50.650Z,9.63
2019-02-06T21:31:19.501Z,9.93
2019-02-06T21:33:48.436Z,9.50
2019-02-06T21:36:17.309Z,10.47
2019-02-06T21:38:46.143Z,10.73
2019-02-06T21:41:15.046Z,10.30
2019-02-06T21:43:44.512Z,10.47
2019-02-06T21:46:13.278Z,9.77
2019-02-06T21:48:42.194Z,10.10
2019-02-06T21:51:10.998Z,10.63
2019-02-06T21:53:39.850Z,10.33
2019-02-06T21:56:08.672Z,10.70
2019-02-06T21:58:37.971Z,11.07
2019-02-06T22:01:06.830Z,12.33
2019-02-06T22:03:35.595Z,12.10
2019-02-06T22:06:04.548Z,11.03
2019-02-06T22:08:33.404Z,12.23
2019-02-06T22:11:02.245Z,12.33
2019-02-06T22:13:31.055Z,11.70
2019-02-06T22:15:59.862Z,11.63
2019-02-06T22:18:28.707Z,11.00
2019-02-06T22:20:59.906Z,11.47
2019-02-06T22:23:28.714Z,11.53
2019-02-06T22:25:57.589Z,11.47
2019-02-06T22:28:26.462Z,11.03
2019-02-06T22:30:55.327Z,10.70
2019-02-06T22:33:24.173Z,10.93
2019-02-06T22:35:52.956Z,12.03
2019-02-06T22:38:21.796Z,12.30
2019-02-06T22:40:50.582Z,12.03
2019-02-06T22:43:19.406Z,11.93
2019-02-06T22:45:48.300Z,12.13
2019-02-06T22:48:17.067Z,11.37
2019-02-06T22:50:48.362Z,11.27
2019-02-06T22:53:17.160Z,12.43
2019-02-06T22:55:45.982Z,11.90
2019-02-06T22:58:14.798Z,12.50
2019-02-06T23:00:49.060Z,12.33
2019-02-06T23:03:25.695Z,12.60
2019-02-06T23:05:57.545Z,12.33
2019-02-06T23:08:26.350Z,12.67
2019-02-06T23:10:55.189Z,12.57
2019-02-06T23:13:24.050Z,13.50
2019-02-06T23:15:52.962Z,13.53
2019-02-06T23:18:21.855Z,13.50
2019-02-06T23:20:50.647Z,13.17
2019-02-06T23:23:19.551Z,13.03
2019-02-06T23:25:48.366Z,13.50
2019-02-06T23:28:17.308Z,13.63
2019-02-06T23:30:46.149Z,13.13
2019-02-06T23:33:14.972Z,13.03
2019-02-06T23:35:43.799Z,13.37
2019-02-06T23:38:12.886Z,12.90
2019-02-06T23:40:41.910Z,13.57
2019-02-06T23:43:10.702Z,13.23
2019-02-06T23:45:39.615Z,13.67
2019-02-06T23:48:08.360Z,13.50
2019-02-06T23:50:37.169Z,14.00
2019-02-06T23:53:06.208Z,12.93
2019-02-06T23:55:35.016Z,13.83
2019-02-06T23:58:04.214Z,13.30
